createdAt,value
2022-10-11T00:01:51.696Z,2.63
2022-10-11T00:04:18.095Z,3.05
2022-10-11T00:06:44.389Z,2.40
2022-10-11T00:09:11.647Z,2.13
2022-10-11T00:11:38.340Z,1.70
2022-10-11T00:14:05.514Z,3.25
2022-10-11T00:16:31.974Z,2.53
2022-10-11T00:18:58.319Z,2.65
2022-10-11T00:21:24.632Z,2.40
2022-10-11T00:23:51.966Z,2.15
2022-10-11T00:26:18.282Z,3.10
2022-10-11T00:28:44.591Z,2.97
2022-10-11T00:31:13.311Z,2.80
2022-10-11T00:33:39.571Z,2.92
2022-10-11T00:36:07.004Z,1.83
2022-10-11T00:38:34.219Z,2.35
2022-10-11T00:41:00.889Z,2.67
2022-10-11T00:43:29.353Z,1.73
2022-10-11T00:45:55.620Z,2.13
2022-10-11T00:48:24.056Z,2.10
2022-10-11T00:50:50.531Z,2.08
2022-10-11T00:53:16.768Z,2.33
2022-10-11T00:55:55.573Z,2.38
2022-10-11T00:58:22.653Z,2.00
2022-10-11T01:00:49.107Z,2.63
2022-10-11T01:03:17.026Z,2.10
2022-10-11T01:05:44.079Z,2.53
2022-10-11T01:08:10.501Z,2.20
2022-10-11T01:10:36.847Z,2.55
2022-10-11T01:13:15.307Z,2.67
2022-10-11T01:15:51.144Z,2.97
2022-10-11T01:18:36.446Z,2.20
2022-10-11T01:21:05.732Z,2.80
2022-10-11T01:23:55.545Z,1.92
2022-10-11T01:26:34.271Z,1.90
2022-10-11T01:29:03.525Z,2.10
2022-10-11T01:31:43.042Z,2.35
2022-10-11T01:34:15.085Z,2.58
2022-10-11T01:36:47.220Z,2.47
2022-10-11T01:39:16.916Z,2.35
2022-10-11T01:41:46.334Z,1.77
2022-10-11T01:44:13.434Z,2.25
2022-10-11T01:46:40.872Z,3.63
2022-10-11T01:49:07.600Z,2.42
2022-10-11T01:51:47.558Z,2.38
2022-10-11T01:54:17.020Z,1.67
2022-10-11T01:56:50.212Z,3.20
2022-10-11T01:59:16.564Z,2.55
2022-10-11T02:01:42.816Z,2.35
2022-10-11T02:04:12.202Z,2.05
2022-10-11T02:06:48.624Z,2.25
2022-10-11T02:09:21.293Z,2.20
2022-10-11T02:11:47.616Z,1.80
2022-10-11T02:14:20.067Z,2.33
2022-10-11T02:16:49.210Z,1.95
2022-10-11T02:19:18.719Z,1.98
2022-10-11T02:21:47.300Z,2.75
2022-10-11T02:24:16.966Z,1.98
2022-10-11T02:26:46.079Z,1.85
2022-10-11T02:29:15.095Z,2.45
2022-10-11T02:31:41.917Z,1.60
2022-10-11T02:34:08.165Z,2.58
2022-10-11T02:36:40.774Z,2.00
2022-10-11T02:39:11.380Z,2.47
2022-10-11T02:41:39.340Z,2.30
2022-10-11T02:44:26.787Z,2.28
2022-10-11T02:46:53.352Z,2.42
2022-10-11T02:49:20.058Z,2.08
2022-10-11T02:51:46.337Z,2.20
2022-10-11T02:54:12.604Z,2.20
2022-10-11T02:56:38.850Z,2.00
2022-10-11T02:59:05.099Z,2.05
2022-10-11T03:01:31.454Z,1.73
2022-10-11T03:03:58.287Z,2.00
2022-10-11T03:06:24.578Z,1.90
2022-10-11T03:08:51.116Z,2.83
2022-10-11T03:11:17.435Z,1.80
2022-10-11T03:13:43.756Z,2.42
2022-10-11T03:16:10.486Z,2.53
2022-10-11T03:18:37.003Z,2.10
2022-10-11T03:21:03.624Z,1.90
2022-10-11T03:23:29.970Z,2.15
2022-10-11T03:25:56.342Z,2.10
2022-10-11T03:28:22.682Z,1.73
2022-10-11T03:30:50.089Z,1.42
2022-10-11T03:33:17.128Z,1.60
2022-10-11T03:35:46.950Z,1.65
2022-10-11T03:38:14.144Z,2.42
2022-10-11T03:40:41.113Z,2.03
2022-10-11T03:43:07.407Z,1.92
2022-10-11T03:45:33.681Z,2.88
2022-10-11T03:48:00.034Z,2.20
2022-10-11T03:50:26.314Z,2.15
2022-10-11T03:52:52.641Z,1.85
2022-10-11T03:55:18.910Z,2.20
2022-10-11T03:57:45.132Z,2.53
2022-10-11T04:00:11.537Z,2.55
2022-10-11T04:02:39.340Z,1.85
2022-10-11T04:05:06.440Z,2.20
2022-10-11T04:07:33.235Z,1.95
2022-10-11T04:09:59.683Z,2.45
2022-10-11T04:12:25.937Z,1.98
2022-10-11T04:14:52.183Z,2.20
2022-10-11T04:17:18.440Z,1.92
2022-10-11T04:19:44.684Z,2.22
2022-10-11T04:22:10.974Z,2.20
2022-10-11T04:24:37.224Z,2.40
2022-10-11T04:27:03.489Z,2.05
2022-10-11T04:29:32.557Z,2.20
2022-10-11T04:31:59.168Z,2.50
2022-10-11T04:34:25.477Z,1.55
2022-10-11T04:36:51.698Z,2.15
2022-10-11T04:39:18.003Z,2.45
2022-10-11T04:41:44.265Z,2.10
2022-10-11T04:44:10.505Z,1.98
2022-10-11T04:46:36.777Z,2.75
2022-10-11T04:49:03.513Z,1.65
2022-10-11T04:51:30.320Z,2.38
2022-10-11T04:53:56.742Z,1.90
2022-10-11T04:56:23.018Z,2.50
2022-10-11T04:58:49.524Z,2.10
2022-10-11T05:01:16.018Z,2.50
2022-10-11T05:03:43.301Z,2.58
2022-10-11T05:06:10.002Z,2.13
2022-10-11T05:08:36.431Z,2.13
2022-10-11T05:11:04.622Z,2.70
2022-10-11T05:13:31.370Z,1.95
2022-10-11T05:15:57.897Z,2.55
2022-10-11T05:18:24.570Z,2.60
2022-10-11T05:21:00.271Z,2.25
2022-10-11T05:23:27.378Z,2.85
2022-10-11T05:25:53.959Z,2.78
2022-10-11T05:28:20.387Z,2.33
2022-10-11T05:30:46.731Z,3.20
2022-10-11T05:33:13.017Z,2.33
2022-10-11T05:35:39.287Z,2.20
2022-10-11T05:38:05.637Z,2.42
2022-10-11T05:40:33.293Z,3.30
2022-10-11T05:42:59.571Z,2.25
2022-10-11T05:45:25.945Z,2.67
2022-10-11T05:47:52.177Z,2.58
2022-10-11T05:50:22.046Z,2.67
2022-10-11T05:52:50.543Z,2.47
2022-10-11T05:55:16.939Z,2.83
2022-10-11T05:57:44.281Z,2.63
2022-10-11T06:00:11.019Z,3.67
2022-10-11T06:02:37.268Z,3.20
2022-10-11T06:05:03.653Z,3.25
2022-10-11T06:07:29.998Z,2.88
2022-10-11T06:09:56.447Z,2.75
2022-10-11T06:12:22.748Z,2.83
2022-10-11T06:14:49.056Z,2.70
2022-10-11T06:17:15.328Z,2.80
2022-10-11T06:19:41.599Z,3.15
2022-10-11T06:22:10.226Z,2.78
2022-10-11T06:24:36.476Z,3.17
2022-10-11T06:27:02.779Z,2.80
2022-10-11T06:29:29.086Z,3.17
2022-10-11T06:31:55.417Z,3.30
2022-10-11T06:34:21.706Z,3.60
2022-10-11T06:36:47.974Z,3.70
2022-10-11T06:39:14.233Z,3.75
2022-10-11T06:41:40.539Z,3.42
2022-10-11T06:44:10.735Z,3.97
2022-10-11T06:46:39.795Z,3.92
2022-10-11T06:49:06.265Z,3.33
2022-10-11T06:51:32.727Z,3.45
2022-10-11T06:53:59.836Z,3.60
2022-10-11T06:56:26.740Z,3.75
2022-10-11T06:58:53.718Z,3.70
2022-10-11T07:01:21.458Z,3.90
2022-10-11T07:03:48.050Z,3.78
2022-10-11T07:06:15.406Z,3.95
2022-10-11T07:08:41.925Z,3.95
2022-10-11T07:11:11.446Z,3.53
2022-10-11T07:13:38.254Z,4.80
2022-10-11T07:16:05.727Z,3.55
2022-10-11T07:18:32.238Z,3.55
2022-10-11T07:21:06.073Z,4.63
2022-10-11T07:23:32.721Z,5.00
2022-10-11T07:25:59.056Z,3.88
2022-10-11T07:28:25.872Z,4.20
2022-10-11T07:30:52.294Z,4.20
2022-10-11T07:33:18.667Z,4.35
2022-10-11T07:35:48.371Z,5.30
2022-10-11T07:38:15.251Z,4.47
2022-10-11T07:40:45.399Z,4.68
2022-10-11T07:43:12.319Z,5.45
2022-10-11T07:45:39.402Z,4.35
2022-10-11T07:48:06.074Z,4.55
2022-10-11T07:50:32.874Z,4.28
2022-10-11T07:52:59.295Z,4.60
2022-10-11T07:55:27.583Z,4.60
2022-10-11T07:57:57.519Z,5.05
2022-10-11T08:00:24.242Z,4.30
2022-10-11T08:02:50.589Z,4.43
2022-10-11T08:05:17.098Z,4.72
2022-10-11T08:07:43.416Z,4.45
2022-10-11T08:10:10.100Z,4.55
2022-10-11T08:12:36.427Z,4.60
2022-10-11T08:15:02.715Z,4.45
2022-10-11T08:17:29.665Z,4.53
2022-10-11T08:19:58.471Z,4.63
2022-10-11T08:22:24.765Z,3.05
2022-10-11T08:24:51.366Z,3.05
2022-10-11T08:27:17.728Z,2.60
2022-10-11T08:29:44.017Z,2.80
2022-10-11T08:32:12.322Z,2.47
2022-10-11T08:34:38.727Z,3.08
2022-10-11T08:37:05.202Z,2.28
2022-10-11T08:39:31.506Z,1.83
2022-10-11T08:42:00.767Z,2.08
2022-10-11T08:44:51.801Z,2.22
2022-10-11T08:47:30.592Z,2.80
2022-10-11T08:49:57.932Z,1.90
2022-10-11T08:52:28.678Z,1.92
2022-10-11T08:54:56.230Z,1.77
2022-10-11T08:57:24.687Z,3.00
2022-10-11T08:59:53.827Z,1.83
2022-10-11T09:02:43.627Z,1.88
2022-10-11T09:05:15.255Z,1.63
2022-10-11T09:08:10.095Z,2.03
2022-10-11T09:10:51.693Z,1.75
2022-10-11T09:13:34.743Z,2.30
2022-10-11T09:16:13.751Z,1.30
2022-10-11T09:18:47.109Z,1.63
2022-10-11T09:21:16.468Z,2.05
2022-10-11T09:24:01.985Z,1.60
2022-10-11T09:26:30.573Z,1.73
2022-10-11T09:29:01.595Z,1.88
2022-10-11T09:31:28.761Z,1.67
2022-10-11T09:33:55.707Z,2.28
2022-10-11T09:36:40.500Z,1.55
2022-10-11T09:39:13.362Z,1.33
2022-10-11T09:41:49.156Z,1.30
2022-10-11T09:44:22.745Z,1.52
2022-10-11T09:46:49.447Z,3.38
2022-10-11T09:49:16.764Z,2.10
2022-10-11T09:51:45.004Z,1.50
2022-10-11T09:54:11.319Z,1.30
2022-10-11T09:56:41.991Z,2.35
2022-10-11T09:59:09.835Z,2.03
2022-10-11T10:01:36.628Z,1.25
2022-10-11T10:04:04.852Z,2.05
2022-10-11T10:06:31.143Z,1.40
2022-10-11T10:09:17.643Z,1.95
2022-10-11T10:11:44.011Z,1.92
2022-10-11T10:14:18.014Z,2.15
2022-10-11T10:16:44.374Z,1.27
2022-10-11T10:19:18.446Z,2.03
2022-10-11T10:21:46.544Z,1.65
2022-10-11T10:24:29.310Z,1.65
2022-10-11T10:27:07.094Z,2.10
2022-10-11T10:29:33.559Z,1.75
2022-10-11T10:32:13.834Z,1.85
2022-10-11T10:35:01.082Z,1.77
2022-10-11T10:37:31.825Z,1.67
2022-10-11T10:40:01.839Z,1.85
2022-10-11T10:42:28.736Z,2.25
2022-10-11T10:44:56.947Z,2.00
2022-10-11T10:47:38.658Z,2.55
2022-10-11T10:50:16.905Z,2.10
2022-10-11T10:52:56.932Z,1.50
2022-10-11T10:55:38.727Z,2.33
2022-10-11T10:58:23.728Z,1.50
2022-10-11T11:00:51.298Z,1.73
2022-10-11T11:03:26.333Z,2.15
2022-10-11T11:05:55.352Z,1.40
2022-10-11T11:08:38.599Z,1.23
2022-10-11T11:11:04.882Z,1.33
2022-10-11T11:13:37.021Z,1.75
2022-10-11T11:16:03.641Z,1.45
2022-10-11T11:18:36.261Z,2.03
2022-10-11T11:21:21.453Z,1.30
2022-10-11T11:23:59.251Z,1.58
2022-10-11T11:26:28.714Z,2.45
2022-10-11T11:29:10.307Z,1.98
2022-10-11T11:31:42.571Z,2.50
2022-10-11T11:34:16.322Z,2.22
2022-10-11T11:36:47.498Z,1.92
2022-10-11T11:39:29.568Z,1.70
2022-10-11T11:42:05.528Z,1.48
2022-10-11T11:44:34.386Z,1.73
2022-10-11T11:47:03.093Z,1.42
2022-10-11T11:49:32.552Z,1.50
2022-10-11T11:51:59.187Z,1.20
2022-10-11T11:54:25.520Z,2.17
2022-10-11T11:56:56.846Z,1.65
2022-10-11T11:59:23.122Z,1.23
2022-10-11T12:01:57.841Z,1.42
2022-10-11T12:04:33.157Z,1.67
2022-10-11T12:07:22.142Z,1.95
2022-10-11T12:09:50.685Z,1.40
2022-10-11T12:12:34.519Z,1.20
2022-10-11T12:15:10.107Z,1.67
2022-10-11T12:17:55.751Z,1.60
2022-10-11T12:20:26.284Z,2.05
2022-10-11T12:22:54.239Z,2.05
2022-10-11T12:25:33.047Z,2.08
2022-10-11T12:28:19.299Z,3.25
2022-10-11T12:30:50.678Z,1.55
2022-10-11T12:33:16.932Z,1.60
2022-10-11T12:35:55.572Z,2.03
2022-10-11T12:38:28.794Z,2.13
2022-10-11T12:40:57.892Z,1.95
2022-10-11T12:43:26.219Z,1.60
2022-10-11T12:45:52.524Z,1.50
2022-10-11T12:48:41.331Z,1.58
2022-10-11T12:51:22.554Z,1.60
2022-10-11T12:54:25.491Z,1.80
2022-10-11T12:56:57.814Z,1.58
2022-10-11T12:59:24.507Z,2.22
2022-10-11T13:01:54.832Z,1.65
2022-10-11T13:04:24.057Z,3.03
2022-10-11T13:06:53.567Z,1.70
2022-10-11T13:09:27.801Z,1.60
2022-10-11T13:12:13.130Z,1.80
2022-10-11T13:14:43.106Z,1.40
2022-10-11T13:17:21.909Z,1.23
2022-10-11T13:19:51.577Z,1.60
2022-10-11T13:22:19.398Z,1.67
2022-10-11T13:24:45.755Z,1.30
2022-10-11T13:27:16.746Z,2.08
2022-10-11T13:29:44.898Z,2.17
2022-10-11T13:32:13.270Z,1.40
2022-10-11T13:34:40.805Z,1.40
2022-10-11T13:37:07.495Z,1.98
2022-10-11T13:39:38.126Z,2.22
2022-10-11T13:42:12.752Z,2.55
2022-10-11T13:44:39.466Z,2.72
2022-10-11T13:47:06.073Z,1.63
2022-10-11T13:49:40.199Z,1.67
2022-10-11T13:52:20.318Z,2.00
2022-10-11T13:54:52.715Z,1.30
2022-10-11T13:57:20.141Z,1.75
2022-10-11T13:59:46.711Z,1.98
2022-10-11T14:02:17.480Z,2.78
2022-10-11T14:04:43.848Z,1.73
2022-10-11T14:07:26.077Z,1.38
2022-10-11T14:09:53.221Z,1.90
2022-10-11T14:12:25.678Z,2.05
2022-10-11T14:14:53.690Z,1.33
2022-10-11T14:17:32.502Z,2.90
2022-10-11T14:20:11.699Z,1.85
2022-10-11T14:22:38.222Z,2.72
2022-10-11T14:25:04.998Z,2.83
2022-10-11T14:27:31.316Z,2.10
2022-10-11T14:30:23.974Z,1.95
2022-10-11T14:32:44.474Z,2.25
2022-10-11T14:35:18.174Z,2.88
2022-10-11T14:37:44.739Z,1.55
2022-10-11T14:40:16.366Z,2.22
2022-10-11T14:42:42.599Z,2.30
2022-10-11T14:45:08.966Z,2.08
2022-10-11T14:47:40.541Z,2.10
2022-10-11T14:50:21.343Z,1.25
2022-10-11T14:52:47.605Z,1.98
2022-10-11T14:55:13.889Z,2.15
2022-10-11T14:57:40.198Z,2.00
2022-10-11T15:00:14.868Z,1.98
2022-10-11T15:02:41.176Z,1.77
2022-10-11T15:05:07.584Z,1.58
2022-10-11T15:07:33.847Z,2.00
2022-10-11T15:10:00.159Z,2.08
2022-10-11T15:12:26.657Z,1.40
2022-10-11T15:14:52.983Z,3.60
2022-10-11T15:17:19.778Z,1.83
2022-10-11T15:19:46.034Z,1.75
2022-10-11T15:22:12.272Z,2.53
2022-10-11T15:24:38.637Z,2.78
2022-10-11T15:27:04.971Z,2.58
2022-10-11T15:29:31.277Z,1.63
2022-10-11T15:31:57.811Z,1.65
2022-10-11T15:34:24.113Z,3.72
2022-10-11T15:36:51.179Z,1.65
2022-10-11T15:39:24.086Z,2.22
2022-10-11T15:41:50.801Z,2.33
2022-10-11T15:44:17.056Z,1.42
2022-10-11T15:46:43.779Z,1.83
2022-10-11T15:49:13.481Z,2.70
2022-10-11T15:51:40.023Z,2.30
2022-10-11T15:54:06.476Z,1.90
2022-10-11T15:56:33.887Z,2.20
2022-10-11T15:59:00.390Z,1.83
2022-10-11T16:01:27.405Z,1.80
2022-10-11T16:03:53.672Z,1.80
2022-10-11T16:06:19.934Z,2.72
2022-10-11T16:08:46.189Z,2.50
2022-10-11T16:11:12.774Z,2.10
2022-10-11T16:13:39.387Z,2.35
2022-10-11T16:16:06.604Z,1.83
2022-10-11T16:18:35.639Z,2.58
2022-10-11T16:21:05.312Z,2.92
2022-10-11T16:23:31.680Z,3.10
2022-10-11T16:25:59.218Z,1.92
2022-10-11T16:28:25.932Z,2.20
2022-10-11T16:30:52.480Z,2.58
2022-10-11T16:33:18.886Z,3.10
2022-10-11T16:35:45.290Z,2.00
2022-10-11T16:38:11.654Z,1.77
2022-10-11T16:40:38.859Z,1.55
2022-10-11T16:43:07.957Z,2.30
2022-10-11T16:45:34.873Z,2.88
2022-10-11T16:48:01.402Z,2.42
2022-10-11T16:50:29.033Z,3.00
2022-10-11T16:52:55.585Z,1.92
2022-10-11T16:55:22.707Z,2.70
2022-10-11T16:57:48.985Z,2.88
2022-10-11T17:00:15.395Z,1.90
2022-10-11T17:02:41.623Z,2.55
2022-10-11T17:05:07.935Z,2.75
2022-10-11T17:07:34.329Z,4.03
2022-10-11T17:10:01.145Z,2.20
2022-10-11T17:12:28.040Z,2.22
2022-10-11T17:14:54.587Z,2.20
2022-10-11T17:17:20.930Z,2.40
2022-10-11T17:19:47.629Z,2.80
2022-10-11T17:22:15.563Z,2.90
2022-10-11T17:24:41.839Z,3.20
2022-10-11T17:27:08.374Z,3.00
2022-10-11T17:29:34.673Z,4.75
2022-10-11T17:32:01.036Z,3.05
2022-10-11T17:34:28.009Z,3.65
2022-10-11T17:36:54.275Z,4.15
2022-10-11T17:39:22.242Z,4.00
2022-10-11T17:41:48.833Z,3.53
2022-10-11T17:44:17.360Z,4.30
2022-10-11T17:46:43.683Z,4.05
2022-10-11T17:49:11.096Z,5.68
2022-10-11T17:51:37.814Z,4.20
2022-10-11T17:54:04.300Z,4.00
2022-10-11T17:56:36.573Z,3.63
2022-10-11T17:59:03.967Z,3.92
2022-10-11T18:01:30.380Z,3.75
2022-10-11T18:03:58.071Z,4.78
2022-10-11T18:06:28.862Z,3.25
2022-10-11T18:08:55.828Z,4.90
2022-10-11T18:11:23.627Z,4.45
2022-10-11T18:13:51.043Z,5.57
2022-10-11T18:16:18.434Z,5.90
2022-10-11T18:18:44.964Z,6.63
2022-10-11T18:21:11.448Z,6.03
2022-10-11T18:23:38.272Z,7.00
2022-10-11T18:26:11.770Z,6.68
2022-10-11T18:28:38.158Z,6.88
2022-10-11T18:31:12.523Z,6.20
2022-10-11T18:33:39.400Z,6.63
2022-10-11T18:36:06.933Z,7.20
2022-10-11T18:38:33.865Z,5.50
2022-10-11T18:41:07.353Z,5.97
2022-10-11T18:43:33.986Z,6.45
2022-10-11T18:46:07.456Z,7.20
2022-10-11T18:48:33.976Z,6.15
2022-10-11T18:51:09.885Z,6.03
2022-10-11T18:53:36.729Z,6.60
2022-10-11T18:56:04.068Z,6.47
2022-10-11T18:58:31.247Z,5.90
2022-10-11T19:01:23.920Z,7.20
2022-10-11T19:03:52.576Z,7.80
2022-10-11T19:06:20.728Z,7.25
2022-10-11T19:08:51.411Z,7.50
2022-10-11T19:11:21.488Z,7.32
2022-10-11T19:13:48.281Z,7.30
2022-10-11T19:16:16.078Z,7.05
2022-10-11T19:18:44.393Z,6.68
2022-10-11T19:21:11.867Z,6.72
2022-10-11T19:23:40.133Z,6.88
2022-10-11T19:26:07.280Z,7.22
2022-10-11T19:28:34.145Z,24.80
2022-10-11T19:31:01.543Z,14.02
2022-10-11T19:33:28.040Z,10.45
2022-10-11T19:35:58.254Z,9.25
2022-10-11T19:38:24.798Z,9.23
2022-10-11T19:40:51.297Z,8.80
2022-10-11T19:43:17.596Z,9.65
2022-10-11T19:45:44.007Z,8.10
2022-10-11T19:48:11.267Z,8.40
2022-10-11T19:50:37.853Z,8.43
2022-10-11T19:53:04.485Z,8.93
2022-10-11T19:55:30.952Z,8.68
2022-10-11T19:57:57.202Z,9.63
2022-10-11T20:00:23.513Z,8.52
2022-10-11T20:02:49.962Z,9.18
2022-10-11T20:05:17.368Z,9.85
2022-10-11T20:07:43.671Z,9.70
2022-10-11T20:10:09.905Z,8.23
2022-10-11T20:12:36.411Z,9.40
2022-10-11T20:15:02.710Z,9.63
2022-10-11T20:17:48.113Z,9.95
2022-10-11T20:20:15.002Z,9.10
2022-10-11T20:22:41.337Z,9.20
2022-10-11T20:25:07.836Z,9.93
2022-10-11T20:27:34.431Z,10.60
2022-10-11T20:30:00.872Z,10.25
2022-10-11T20:32:28.091Z,12.07
2022-10-11T20:34:54.364Z,12.55
2022-10-11T20:37:20.956Z,12.02
2022-10-11T20:39:47.219Z,12.07
2022-10-11T20:42:15.205Z,12.25
2022-10-11T20:44:43.575Z,11.65
2022-10-11T20:47:09.873Z,12.55
2022-10-11T20:49:36.140Z,12.77
2022-10-11T20:52:02.484Z,11.82
2022-10-11T20:54:29.814Z,10.85
2022-10-11T20:56:57.925Z,11.43
2022-10-11T20:59:24.255Z,11.63
2022-10-11T21:01:51.047Z,12.48
2022-10-11T21:04:20.026Z,11.02
2022-10-11T21:06:47.520Z,10.93
2022-10-11T21:09:16.352Z,10.48
2022-10-11T21:11:43.225Z,11.27
2022-10-11T21:14:09.448Z,10.02
2022-10-11T21:16:35.712Z,10.55
2022-10-11T21:19:02.291Z,10.98
2022-10-11T21:21:29.282Z,10.40
2022-10-11T21:23:56.286Z,10.52
2022-10-11T21:26:22.823Z,9.95
2022-10-11T21:28:49.347Z,12.25
2022-10-11T21:31:18.166Z,10.77
2022-10-11T21:33:44.471Z,11.70
2022-10-11T21:36:12.420Z,10.45
2022-10-11T21:38:38.879Z,10.57
2022-10-11T21:41:06.505Z,10.70
2022-10-11T21:43:33.429Z,10.25
2022-10-11T21:45:59.697Z,10.25
2022-10-11T21:48:25.996Z,10.57
2022-10-11T21:50:53.164Z,11.00
2022-10-11T21:53:19.888Z,11.55
2022-10-11T21:55:46.547Z,11.02
2022-10-11T21:58:13.188Z,10.18
2022-10-11T22:00:39.508Z,10.50
2022-10-11T22:03:05.754Z,10.43
2022-10-11T22:05:32.100Z,10.65
2022-10-11T22:07:58.399Z,10.63
2022-10-11T22:10:24.684Z,10.73
2022-10-11T22:12:51.087Z,10.75
2022-10-11T22:15:17.372Z,10.45
2022-10-11T22:17:43.618Z,10.15
2022-10-11T22:20:09.972Z,10.52
2022-10-11T22:22:36.549Z,9.80
2022-10-11T22:25:03.246Z,11.93
2022-10-11T22:27:29.573Z,11.45
2022-10-11T22:29:56.055Z,10.07
2022-10-11T22:32:22.291Z,11.85
2022-10-11T22:34:48.544Z,10.02
2022-10-11T22:37:14.900Z,10.52
2022-10-11T22:39:41.123Z,10.80
2022-10-11T22:42:07.351Z,10.70
2022-10-11T22:44:33.612Z,10.45
2022-10-11T22:46:59.955Z,9.70
2022-10-11T22:49:26.187Z,10.13
2022-10-11T22:51:52.721Z,11.10
2022-10-11T22:54:18.972Z,10.65
2022-10-11T22:56:45.225Z,11.00
2022-10-11T22:59:11.550Z,9.57
2022-10-11T23:01:37.785Z,10.25
2022-10-11T23:04:04.173Z,11.60
2022-10-11T23:06:30.548Z,10.82
2022-10-11T23:08:57.065Z,11.20
2022-10-11T23:11:23.321Z,11.20
2022-10-11T23:13:50.088Z,10.50
2022-10-11T23:16:16.482Z,10.95
2022-10-11T23:18:42.729Z,11.23
2022-10-11T23:21:08.984Z,10.98
2022-10-11T23:23:35.386Z,11.52
2022-10-11T23:26:10.246Z,10.80
2022-10-11T23:28:36.848Z,12.35
2022-10-11T23:31:07.254Z,11.32
2022-10-11T23:33:33.588Z,10.90
2022-10-11T23:35:59.843Z,11.93
2022-10-11T23:38:26.126Z,12.52
2022-10-11T23:40:52.526Z,12.68
2022-10-11T23:43:18.742Z,11.23
2022-10-11T23:45:45.126Z,12.18
2022-10-11T23:48:11.413Z,12.43
2022-10-11T23:50:37.707Z,12.93
2022-10-11T23:53:03.960Z,11.88
2022-10-11T23:55:30.306Z,12.18
2022-10-11T23:57:56.550Z,11.68
